LFMN Airport Information

Runway Information
Runway 04L Length 8995 ft width 148 ft
Elevation 10 ft Threshold 0 ft Heading 45
Runway 22R Length 8995 ft Width 148 ft
Elevation 10 ft Threshold 575 ft Heading 225
Runway 04R Length 9712 ft width 148 ft
Elevation 10 ft Threshold 0 ft Heading 45
Runway 22L Length 9712 ft Width 148 ft
Elevation 12 ft Threshold 0 ft Heading 225
Airport Frequencies
Type A/D Name NICE APP Frequency 124.175 MHZ
Type ATIS Name NICE ATIS Frequency 129.6 MHZ
Type GND Name NICE GND Frequency 121.775 MHZ
Type TWR Name NICE TWR Frequency 118.7 MHZ
Airport Navaids
Type VOR-DME Name Nice Cote D Azur Frequency 109650 KHZ
Type VOR-DME Name Cagnes Sur Mer Frequency 109200 KHZ
Type NDB Name Nice Frequency 399 KHZ
Type VOR-DME Name Nice Frequency 112400 KHZ
Airport Weather Information & NOTAM
ADDS - METARS form results

(1608 UTC 14 June 2021)
Data provider http://aviationweather.gov/metar/data/
 
METAR text: LFMN 141600Z 15003KT CAVOK 25/20 Q1015 NOSIG
Conditions at: LFMN (NICE/COTE D'AZUR, FR) observed 1600 UTC 14 June 2021
Temperature: 25.0°C (77°F)
Dewpoint: 20.0°C (68°F) [RH = 74%]
Pressure (altimeter): 29.97 inches Hg (1015.0 mb)
Winds: from the SSE (150 degrees) at 3 MPH (3 knots; 1.5 m/s)
Visibility: 6 or more miles (10+ km)
Ceiling: ceiling and visibility are OK
Clouds: unknown
Weather: no significant weather observed at this time

METAR text: LFMN 141530Z 17004KT CAVOK 25/21 Q1015 NOSIG
Conditions at: LFMN (NICE/COTE D'AZUR, FR) observed 1530 UTC 14 June 2021
Temperature: 25.0°C (77°F)
Dewpoint: 21.0°C (70°F) [RH = 79%]
Pressure (altimeter): 29.97 inches Hg (1015.0 mb)
Winds: from the S (170 degrees) at 5 MPH (4 knots; 2.1 m/s)
Visibility: 6 or more miles (10+ km)
Ceiling: ceiling and visibility are OK
Clouds: unknown
Weather: no significant weather observed at this time

Forecast for: LFMN (NICE/COTE D'AZUR, FR)
Text: TAF LFMN 141400Z 1415/1521 15006KT CAVOK
Forecast period: 1500 UTC 14 June 2021 to 2100 UTC 15 June 2021
Forecast type: FROM: standard forecast or significant change
Winds: from the SSE (150 degrees) at 7 MPH (6 knots; 3.1 m/s)
Visibility: 6 or more miles (10+ km)
Ceiling: unknown
Clouds: missing
Weather: NSW  (no significant weather)
Text: PROB40
Forecast period: 2000 UTC 14 June 2021 to 0700 UTC 15 June 2021
Forecast type: TEMPORARY: The following changes expected for less than half the time period
Visibility: missing
Ceiling: 500 feet AGL
Clouds: broken clouds at 500 feet AGL
Weather: no significant weather forecast for this period